sensor_id;sensor_type;location;lat;lon;timestamp;P1;durP1;ratioP1;P2;durP2;ratioP2
6089;SDS011;3073;42.660;23.316;2023-05-07T00:01:01;13.43;;;8.27;;
6089;SDS011;3073;42.660;23.316;2023-05-07T00:03:28;13.17;;;7.97;;
6089;SDS011;3073;42.660;23.316;2023-05-07T00:05:54;16.93;;;8.30;;
6089;SDS011;3073;42.660;23.316;2023-05-07T00:08:21;13.30;;;7.80;;
6089;SDS011;3073;42.660;23.316;2023-05-07T00:10:48;13.30;;;8.73;;
6089;SDS011;3073;42.660;23.316;2023-05-07T00:13:17;13.23;;;8.37;;
6089;SDS011;3073;42.660;23.316;2023-05-07T00:15:44;17.40;;;7.47;;
6089;SDS011;3073;42.660;23.316;2023-05-07T00:18:12;10.87;;;8.00;;
6089;SDS011;3073;42.660;23.316;2023-05-07T00:20:39;12.83;;;8.70;;
6089;SDS011;3073;42.660;23.316;2023-05-07T00:23:06;19.47;;;8.60;;
6089;SDS011;3073;42.660;23.316;2023-05-07T00:25:33;13.13;;;8.33;;
6089;SDS011;3073;42.660;23.316;2023-05-07T00:28:00;14.70;;;8.60;;
6089;SDS011;3073;42.660;23.316;2023-05-07T00:30:28;15.97;;;9.93;;
6089;SDS011;3073;42.660;23.316;2023-05-07T00:32:55;13.90;;;8.47;;
6089;SDS011;3073;42.660;23.316;2023-05-07T00:35:24;10.93;;;8.20;;
6089;SDS011;3073;42.660;23.316;2023-05-07T00:37:51;15.20;;;8.70;;
6089;SDS011;3073;42.660;23.316;2023-05-07T00:40:17;14.83;;;9.13;;
6089;SDS011;3073;42.660;23.316;2023-05-07T00:42:44;15.80;;;9.00;;
6089;SDS011;3073;42.660;23.316;2023-05-07T00:45:12;14.00;;;7.80;;
6089;SDS011;3073;42.660;23.316;2023-05-07T00:47:39;15.50;;;9.40;;
6089;SDS011;3073;42.660;23.316;2023-05-07T00:50:07;12.07;;;7.57;;
6089;SDS011;3073;42.660;23.316;2023-05-07T00:52:38;16.50;;;9.00;;
6089;SDS011;3073;42.660;23.316;2023-05-07T00:55:07;12.50;;;8.50;;
6089;SDS011;3073;42.660;23.316;2023-05-07T00:57:35;9.60;;;6.93;;
6089;SDS011;3073;42.660;23.316;2023-05-07T01:00:03;20.53;;;9.20;;
6089;SDS011;3073;42.660;23.316;2023-05-07T01:02:32;13.30;;;7.73;;
6089;SDS011;3073;42.660;23.316;2023-05-07T01:04:59;11.47;;;7.70;;
6089;SDS011;3073;42.660;23.316;2023-05-07T01:07:27;13.07;;;8.60;;
6089;SDS011;3073;42.660;23.316;2023-05-07T01:09:56;15.40;;;9.30;;
6089;SDS011;3073;42.660;23.316;2023-05-07T01:12:23;12.97;;;8.50;;
6089;SDS011;3073;42.660;23.316;2023-05-07T01:14:51;13.00;;;8.57;;
6089;SDS011;3073;42.660;23.316;2023-05-07T01:17:18;11.70;;;7.70;;
6089;SDS011;3073;42.660;23.316;2023-05-07T01:19:45;13.87;;;7.60;;
6089;SDS011;3073;42.660;23.316;2023-05-07T01:22:13;14.83;;;8.47;;
6089;SDS011;3073;42.660;23.316;2023-05-07T01:24:44;13.70;;;7.70;;
6089;SDS011;3073;42.660;23.316;2023-05-07T01:27:11;10.90;;;7.30;;
6089;SDS011;3073;42.660;23.316;2023-05-07T01:29:38;11.10;;;7.40;;
6089;SDS011;3073;42.660;23.316;2023-05-07T01:32:05;14.33;;;8.00;;
6089;SDS011;3073;42.660;23.316;2023-05-07T01:34:32;11.27;;;7.07;;
6089;SDS011;3073;42.660;23.316;2023-05-07T01:37:02;12.10;;;7.40;;
6089;SDS011;3073;42.660;23.316;2023-05-07T01:39:29;11.70;;;7.13;;
6089;SDS011;3073;42.660;23.316;2023-05-07T01:41:58;9.23;;;6.40;;
6089;SDS011;3073;42.660;23.316;2023-05-07T01:44:25;10.70;;;6.83;;
6089;SDS011;3073;42.660;23.316;2023-05-07T01:46:53;13.70;;;6.93;;
6089;SDS011;3073;42.660;23.316;2023-05-07T01:49:20;10.20;;;6.60;;
6089;SDS011;3073;42.660;23.316;2023-05-07T01:51:47;9.60;;;6.57;;
6089;SDS011;3073;42.660;23.316;2023-05-07T01:54:14;15.90;;;8.10;;
6089;SDS011;3073;42.660;23.316;2023-05-07T01:56:41;8.60;;;6.17;;
6089;SDS011;3073;42.660;23.316;2023-05-07T01:59:09;16.83;;;7.40;;
6089;SDS011;3073;42.660;23.316;2023-05-07T02:01:38;11.73;;;8.40;;
6089;SDS011;3073;42.660;23.316;2023-05-07T02:04:05;12.30;;;6.77;;
6089;SDS011;3073;42.660;23.316;2023-05-07T02:06:32;10.37;;;6.70;;
6089;SDS011;3073;42.660;23.316;2023-05-07T02:08:59;6.93;;;5.63;;
6089;SDS011;3073;42.660;23.316;2023-05-07T02:11:26;9.63;;;6.53;;
6089;SDS011;3073;42.660;23.316;2023-05-07T02:13:53;11.53;;;7.10;;
6089;SDS011;3073;42.660;23.316;2023-05-07T02:16:21;17.03;;;7.53;;
6089;SDS011;3073;42.660;23.316;2023-05-07T02:18:48;17.40;;;7.07;;
6089;SDS011;3073;42.660;23.316;2023-05-07T02:21:15;9.57;;;6.47;;
6089;SDS011;3073;42.660;23.316;2023-05-07T02:23:42;14.67;;;7.73;;
6089;SDS011;3073;42.660;23.316;2023-05-07T02:26:10;13.47;;;7.87;;
6089;SDS011;3073;42.660;23.316;2023-05-07T02:28:37;9.77;;;6.70;;
6089;SDS011;3073;42.660;23.316;2023-05-07T02:31:04;11.27;;;7.63;;
6089;SDS011;3073;42.660;23.316;2023-05-07T02:33:32;12.47;;;7.00;;
6089;SDS011;3073;42.660;23.316;2023-05-07T02:36:05;10.80;;;6.90;;
6089;SDS011;3073;42.660;23.316;2023-05-07T02:38:32;13.30;;;7.60;;
6089;SDS011;3073;42.660;23.316;2023-05-07T02:40:59;10.13;;;6.77;;
6089;SDS011;3073;42.660;23.316;2023-05-07T02:43:25;10.90;;;7.70;;
6089;SDS011;3073;42.660;23.316;2023-05-07T02:45:59;10.10;;;7.40;;
6089;SDS011;3073;42.660;23.316;2023-05-07T02:48:26;12.20;;;7.47;;
6089;SDS011;3073;42.660;23.316;2023-05-07T02:50:55;16.57;;;7.53;;
6089;SDS011;3073;42.660;23.316;2023-05-07T02:53:21;10.77;;;7.10;;
6089;SDS011;3073;42.660;23.316;2023-05-07T02:55:51;17.37;;;8.63;;
6089;SDS011;3073;42.660;23.316;2023-05-07T02:58:18;10.83;;;6.90;;
6089;SDS011;3073;42.660;23.316;2023-05-07T03:00:45;13.77;;;8.20;;
6089;SDS011;3073;42.660;23.316;2023-05-07T03:03:12;14.57;;;7.57;;
6089;SDS011;3073;42.660;23.316;2023-05-07T03:05:39;11.00;;;7.47;;
6089;SDS011;3073;42.660;23.316;2023-05-07T03:08:08;10.30;;;7.57;;
6089;SDS011;3073;42.660;23.316;2023-05-07T03:10:35;10.37;;;6.80;;
6089;SDS011;3073;42.660;23.316;2023-05-07T03:13:03;11.93;;;7.70;;
6089;SDS011;3073;42.660;23.316;2023-05-07T03:15:30;11.80;;;8.10;;
6089;SDS011;3073;42.660;23.316;2023-05-07T03:17:57;9.37;;;7.77;;
6089;SDS011;3073;42.660;23.316;2023-05-07T03:20:23;11.50;;;7.43;;
6089;SDS011;3073;42.660;23.316;2023-05-07T03:22:50;13.60;;;8.17;;
6089;SDS011;3073;42.660;23.316;2023-05-07T03:25:33;13.07;;;7.93;;
6089;SDS011;3073;42.660;23.316;2023-05-07T03:28:06;12.03;;;8.23;;
6089;SDS011;3073;42.660;23.316;2023-05-07T03:30:33;12.80;;;8.47;;
6089;SDS011;3073;42.660;23.316;2023-05-07T03:33:00;14.37;;;8.20;;
6089;SDS011;3073;42.660;23.316;2023-05-07T03:35:27;11.40;;;7.73;;
6089;SDS011;3073;42.660;23.316;2023-05-07T03:37:53;13.40;;;8.80;;
6089;SDS011;3073;42.660;23.316;2023-05-07T03:40:20;10.57;;;7.63;;
6089;SDS011;3073;42.660;23.316;2023-05-07T03:42:48;14.20;;;8.33;;
6089;SDS011;3073;42.660;23.316;2023-05-07T03:45:15;12.40;;;7.77;;
6089;SDS011;3073;42.660;23.316;2023-05-07T03:47:42;11.07;;;6.90;;
6089;SDS011;3073;42.660;23.316;2023-05-07T03:50:09;14.50;;;8.00;;
6089;SDS011;3073;42.660;23.316;2023-05-07T03:52:36;11.63;;;8.13;;
6089;SDS011;3073;42.660;23.316;2023-05-07T03:55:03;10.80;;;7.50;;
6089;SDS011;3073;42.660;23.316;2023-05-07T03:57:30;9.67;;;6.80;;
6089;SDS011;3073;42.660;23.316;2023-05-07T03:59:59;13.00;;;7.70;;
6089;SDS011;3073;42.660;23.316;2023-05-07T04:02:25;16.83;;;7.97;;
6089;SDS011;3073;42.660;23.316;2023-05-07T04:04:53;15.90;;;9.67;;
6089;SDS011;3073;42.660;23.316;2023-05-07T04:07:20;17.57;;;7.50;;
6089;SDS011;3073;42.660;23.316;2023-05-07T04:09:47;12.67;;;9.03;;
6089;SDS011;3073;42.660;23.316;2023-05-07T04:12:14;13.20;;;7.00;;
6089;SDS011;3073;42.660;23.316;2023-05-07T04:14:41;14.63;;;7.50;;
6089;SDS011;3073;42.660;23.316;2023-05-07T04:17:10;18.33;;;8.60;;
6089;SDS011;3073;42.660;23.316;2023-05-07T04:19:36;13.20;;;8.27;;
6089;SDS011;3073;42.660;23.316;2023-05-07T04:22:03;15.17;;;7.57;;
6089;SDS011;3073;42.660;23.316;2023-05-07T04:24:31;13.80;;;7.70;;
6089;SDS011;3073;42.660;23.316;2023-05-07T04:26:58;14.60;;;9.00;;
6089;SDS011;3073;42.660;23.316;2023-05-07T04:29:25;9.70;;;7.70;;
6089;SDS011;3073;42.660;23.316;2023-05-07T04:31:52;11.73;;;7.93;;
6089;SDS011;3073;42.660;23.316;2023-05-07T04:34:22;12.00;;;8.00;;
6089;SDS011;3073;42.660;23.316;2023-05-07T04:36:49;11.47;;;8.40;;
6089;SDS011;3073;42.660;23.316;2023-05-07T04:39:15;12.13;;;8.47;;
6089;SDS011;3073;42.660;23.316;2023-05-07T04:41:43;12.90;;;8.23;;
6089;SDS011;3073;42.660;23.316;2023-05-07T04:44:10;12.30;;;7.70;;
6089;SDS011;3073;42.660;23.316;2023-05-07T04:46:37;13.10;;;9.13;;
6089;SDS011;3073;42.660;23.316;2023-05-07T04:49:04;12.50;;;8.33;;
6089;SDS011;3073;42.660;23.316;2023-05-07T04:51:32;13.27;;;9.33;;
6089;SDS011;3073;42.660;23.316;2023-05-07T04:53:58;12.33;;;8.30;;
6089;SDS011;3073;42.660;23.316;2023-05-07T04:56:27;15.20;;;9.77;;
6089;SDS011;3073;42.660;23.316;2023-05-07T04:58:54;15.83;;;8.30;;
6089;SDS011;3073;42.660;23.316;2023-05-07T05:01:21;13.70;;;8.03;;
6089;SDS011;3073;42.660;23.316;2023-05-07T05:03:47;11.90;;;8.67;;
6089;SDS011;3073;42.660;23.316;2023-05-07T05:06:14;12.53;;;9.00;;
6089;SDS011;3073;42.660;23.316;2023-05-07T05:08:42;12.37;;;8.27;;
6089;SDS011;3073;42.660;23.316;2023-05-07T05:11:09;12.20;;;7.40;;
6089;SDS011;3073;42.660;23.316;2023-05-07T05:13:36;12.30;;;8.17;;
6089;SDS011;3073;42.660;23.316;2023-05-07T05:16:09;15.03;;;8.53;;
6089;SDS011;3073;42.660;23.316;2023-05-07T05:18:46;11.93;;;7.20;;
6089;SDS011;3073;42.660;23.316;2023-05-07T05:21:19;11.07;;;7.80;;
6089;SDS011;3073;42.660;23.316;2023-05-07T05:26:38;9.83;;;7.47;;
6089;SDS011;3073;42.660;23.316;2023-05-07T05:29:08;15.13;;;8.33;;
6089;SDS011;3073;42.660;23.316;2023-05-07T05:31:35;9.00;;;7.00;;
6089;SDS011;3073;42.660;23.316;2023-05-07T05:34:02;10.97;;;8.23;;
6089;SDS011;3073;42.660;23.316;2023-05-07T05:36:29;10.30;;;6.43;;
6089;SDS011;3073;42.660;23.316;2023-05-07T05:38:57;12.03;;;8.10;;
6089;SDS011;3073;42.660;23.316;2023-05-07T05:41:25;15.00;;;8.37;;
6089;SDS011;3073;42.660;23.316;2023-05-07T05:43:52;19.27;;;7.70;;
6089;SDS011;3073;42.660;23.316;2023-05-07T05:46:18;15.00;;;7.33;;
6089;SDS011;3073;42.660;23.316;2023-05-07T05:48:47;9.67;;;7.20;;
6089;SDS011;3073;42.660;23.316;2023-05-07T05:51:14;13.20;;;7.70;;
6089;SDS011;3073;42.660;23.316;2023-05-07T05:53:41;9.90;;;6.90;;
6089;SDS011;3073;42.660;23.316;2023-05-07T05:56:08;14.63;;;7.80;;
6089;SDS011;3073;42.660;23.316;2023-05-07T05:58:37;9.23;;;5.73;;
6089;SDS011;3073;42.660;23.316;2023-05-07T06:01:04;10.20;;;6.30;;
6089;SDS011;3073;42.660;23.316;2023-05-07T06:03:31;7.70;;;5.77;;
6089;SDS011;3073;42.660;23.316;2023-05-07T06:05:58;9.00;;;5.73;;
6089;SDS011;3073;42.660;23.316;2023-05-07T06:08:28;10.70;;;6.73;;
6089;SDS011;3073;42.660;23.316;2023-05-07T06:10:58;9.03;;;6.03;;
6089;SDS011;3073;42.660;23.316;2023-05-07T06:13:26;9.63;;;4.87;;
6089;SDS011;3073;42.660;23.316;2023-05-07T06:15:55;10.80;;;5.70;;
6089;SDS011;3073;42.660;23.316;2023-05-07T06:18:23;7.00;;;5.33;;
6089;SDS011;3073;42.660;23.316;2023-05-07T06:20:51;10.30;;;6.40;;
6089;SDS011;3073;42.660;23.316;2023-05-07T06:23:18;9.17;;;6.03;;
6089;SDS011;3073;42.660;23.316;2023-05-07T06:25:47;9.60;;;6.93;;
6089;SDS011;3073;42.660;23.316;2023-05-07T06:28:15;8.30;;;5.90;;
6089;SDS011;3073;42.660;23.316;2023-05-07T06:30:42;8.00;;;4.63;;
6089;SDS011;3073;42.660;23.316;2023-05-07T06:33:12;7.20;;;5.23;;
6089;SDS011;3073;42.660;23.316;2023-05-07T06:35:39;7.80;;;5.90;;
6089;SDS011;3073;42.660;23.316;2023-05-07T06:38:06;8.43;;;6.27;;
6089;SDS011;3073;42.660;23.316;2023-05-07T06:40:33;7.37;;;5.77;;
6089;SDS011;3073;42.660;23.316;2023-05-07T06:43:00;9.97;;;5.60;;
6089;SDS011;3073;42.660;23.316;2023-05-07T06:45:27;8.07;;;4.97;;
6089;SDS011;3073;42.660;23.316;2023-05-07T06:47:54;8.50;;;5.40;;
6089;SDS011;3073;42.660;23.316;2023-05-07T06:50:22;7.20;;;5.50;;
6089;SDS011;3073;42.660;23.316;2023-05-07T06:52:49;8.70;;;5.80;;
6089;SDS011;3073;42.660;23.316;2023-05-07T06:55:18;7.23;;;5.93;;
6089;SDS011;3073;42.660;23.316;2023-05-07T06:57:45;8.00;;;5.40;;
6089;SDS011;3073;42.660;23.316;2023-05-07T07:00:13;7.83;;;5.90;;
6089;SDS011;3073;42.660;23.316;2023-05-07T07:02:40;7.80;;;5.77;;
6089;SDS011;3073;42.660;23.316;2023-05-07T07:05:07;9.30;;;5.97;;
6089;SDS011;3073;42.660;23.316;2023-05-07T07:07:36;9.50;;;5.77;;
6089;SDS011;3073;42.660;23.316;2023-05-07T07:10:06;7.80;;;5.80;;
6089;SDS011;3073;42.660;23.316;2023-05-07T07:12:34;8.37;;;5.93;;
6089;SDS011;3073;42.660;23.316;2023-05-07T07:15:00;7.10;;;5.63;;
6089;SDS011;3073;42.660;23.316;2023-05-07T07:17:27;9.10;;;6.30;;
6089;SDS011;3073;42.660;23.316;2023-05-07T07:19:56;7.27;;;5.60;;
6089;SDS011;3073;42.660;23.316;2023-05-07T07:22:23;9.10;;;5.63;;
6089;SDS011;3073;42.660;23.316;2023-05-07T07:24:51;12.27;;;5.60;;
6089;SDS011;3073;42.660;23.316;2023-05-07T07:27:18;6.50;;;5.07;;
6089;SDS011;3073;42.660;23.316;2023-05-07T07:29:46;7.50;;;5.63;;
6089;SDS011;3073;42.660;23.316;2023-05-07T07:32:13;9.13;;;6.00;;
6089;SDS011;3073;42.660;23.316;2023-05-07T07:34:39;7.27;;;4.70;;
6089;SDS011;3073;42.660;23.316;2023-05-07T07:37:06;10.43;;;6.20;;
6089;SDS011;3073;42.660;23.316;2023-05-07T07:39:33;8.67;;;5.80;;
6089;SDS011;3073;42.660;23.316;2023-05-07T07:42:01;11.10;;;6.33;;
6089;SDS011;3073;42.660;23.316;2023-05-07T07:44:28;10.57;;;6.40;;
6089;SDS011;3073;42.660;23.316;2023-05-07T07:46:55;7.80;;;5.60;;
6089;SDS011;3073;42.660;23.316;2023-05-07T07:49:22;8.83;;;5.63;;
6089;SDS011;3073;42.660;23.316;2023-05-07T07:51:48;6.83;;;5.33;;
6089;SDS011;3073;42.660;23.316;2023-05-07T07:54:16;6.80;;;5.33;;
6089;SDS011;3073;42.660;23.316;2023-05-07T07:56:43;7.13;;;5.50;;
6089;SDS011;3073;42.660;23.316;2023-05-07T07:59:11;9.33;;;5.77;;
6089;SDS011;3073;42.660;23.316;2023-05-07T08:01:39;7.57;;;5.43;;
6089;SDS011;3073;42.660;23.316;2023-05-07T08:04:05;7.53;;;5.38;;
6089;SDS011;3073;42.660;23.316;2023-05-07T08:06:32;9.20;;;6.75;;
6089;SDS011;3073;42.660;23.316;2023-05-07T08:08:59;8.90;;;5.60;;
6089;SDS011;3073;42.660;23.316;2023-05-07T08:11:26;11.98;;;5.72;;
6089;SDS011;3073;42.660;23.316;2023-05-07T08:13:53;8.00;;;5.85;;
6089;SDS011;3073;42.660;23.316;2023-05-07T08:16:22;10.05;;;6.10;;
6089;SDS011;3073;42.660;23.316;2023-05-07T08:18:50;6.68;;;4.88;;
6089;SDS011;3073;42.660;23.316;2023-05-07T08:21:17;7.28;;;5.78;;
6089;SDS011;3073;42.660;23.316;2023-05-07T08:23:54;6.65;;;5.75;;
6089;SDS011;3073;42.660;23.316;2023-05-07T08:26:27;6.47;;;4.47;;
6089;SDS011;3073;42.660;23.316;2023-05-07T08:28:58;5.50;;;4.63;;
6089;SDS011;3073;42.660;23.316;2023-05-07T08:31:26;4.85;;;4.22;;
6089;SDS011;3073;42.660;23.316;2023-05-07T08:33:54;5.22;;;4.28;;
6089;SDS011;3073;42.660;23.316;2023-05-07T08:36:20;6.63;;;3.90;;
6089;SDS011;3073;42.660;23.316;2023-05-07T08:38:47;6.50;;;4.78;;
6089;SDS011;3073;42.660;23.316;2023-05-07T08:41:14;6.22;;;5.22;;
6089;SDS011;3073;42.660;23.316;2023-05-07T08:43:42;7.53;;;4.93;;
6089;SDS011;3073;42.660;23.316;2023-05-07T08:46:13;7.40;;;4.60;;
6089;SDS011;3073;42.660;23.316;2023-05-07T08:48:46;7.05;;;4.47;;
6089;SDS011;3073;42.660;23.316;2023-05-07T08:51:15;4.97;;;4.05;;
6089;SDS011;3073;42.660;23.316;2023-05-07T08:53:43;6.55;;;4.20;;
6089;SDS011;3073;42.660;23.316;2023-05-07T08:56:10;8.40;;;4.25;;
6089;SDS011;3073;42.660;23.316;2023-05-07T08:58:38;5.82;;;3.53;;
6089;SDS011;3073;42.660;23.316;2023-05-07T09:01:07;6.20;;;3.97;;
6089;SDS011;3073;42.660;23.316;2023-05-07T09:03:36;8.32;;;5.25;;
6089;SDS011;3073;42.660;23.316;2023-05-07T09:06:05;6.60;;;5.28;;
6089;SDS011;3073;42.660;23.316;2023-05-07T09:08:35;6.63;;;5.23;;
6089;SDS011;3073;42.660;23.316;2023-05-07T09:11:02;7.17;;;5.03;;
6089;SDS011;3073;42.660;23.316;2023-05-07T09:13:29;7.10;;;4.57;;
6089;SDS011;3073;42.660;23.316;2023-05-07T09:15:57;10.13;;;4.20;;
6089;SDS011;3073;42.660;23.316;2023-05-07T09:18:23;7.97;;;5.63;;
6089;SDS011;3073;42.660;23.316;2023-05-07T09:20:51;4.90;;;4.00;;
6089;SDS011;3073;42.660;23.316;2023-05-07T09:23:19;5.03;;;4.53;;
6089;SDS011;3073;42.660;23.316;2023-05-07T09:25:47;8.57;;;5.33;;
6089;SDS011;3073;42.660;23.316;2023-05-07T09:28:14;8.87;;;5.80;;
6089;SDS011;3073;42.660;23.316;2023-05-07T09:30:41;8.45;;;5.20;;
6089;SDS011;3073;42.660;23.316;2023-05-07T09:33:07;6.30;;;5.10;;
6089;SDS011;3073;42.660;23.316;2023-05-07T09:35:34;5.47;;;3.70;;
6089;SDS011;3073;42.660;23.316;2023-05-07T09:38:01;3.47;;;3.00;;
6089;SDS011;3073;42.660;23.316;2023-05-07T09:40:30;5.68;;;3.13;;
6089;SDS011;3073;42.660;23.316;2023-05-07T09:43:01;3.47;;;3.10;;
6089;SDS011;3073;42.660;23.316;2023-05-07T09:45:37;5.53;;;3.67;;
6089;SDS011;3073;42.660;23.316;2023-05-07T09:48:05;6.15;;;4.00;;
6089;SDS011;3073;42.660;23.316;2023-05-07T09:50:35;4.78;;;3.28;;
6089;SDS011;3073;42.660;23.316;2023-05-07T09:53:11;4.07;;;3.25;;
6089;SDS011;3073;42.660;23.316;2023-05-07T09:55:42;3.97;;;3.58;;
6089;SDS011;3073;42.660;23.316;2023-05-07T09:58:11;2.97;;;2.70;;
6089;SDS011;3073;42.660;23.316;2023-05-07T10:00:44;3.22;;;2.92;;
6089;SDS011;3073;42.660;23.316;2023-05-07T10:03:15;3.38;;;2.53;;
6089;SDS011;3073;42.660;23.316;2023-05-07T10:05:43;3.15;;;2.80;;
6089;SDS011;3073;42.660;23.316;2023-05-07T10:08:13;2.90;;;2.45;;
6089;SDS011;3073;42.660;23.316;2023-05-07T10:10:43;3.78;;;2.90;;
6089;SDS011;3073;42.660;23.316;2023-05-07T10:13:11;4.00;;;2.95;;
6089;SDS011;3073;42.660;23.316;2023-05-07T10:15:38;3.90;;;2.45;;
6089;SDS011;3073;42.660;23.316;2023-05-07T10:18:06;4.78;;;3.28;;
6089;SDS011;3073;42.660;23.316;2023-05-07T10:20:34;3.30;;;3.00;;
6089;SDS011;3073;42.660;23.316;2023-05-07T10:23:04;3.47;;;2.85;;
6089;SDS011;3073;42.660;23.316;2023-05-07T10:25:32;4.85;;;3.45;;
6089;SDS011;3073;42.660;23.316;2023-05-07T10:28:02;4.43;;;3.78;;
6089;SDS011;3073;42.660;23.316;2023-05-07T10:30:33;2.90;;;2.60;;
6089;SDS011;3073;42.660;23.316;2023-05-07T10:33:07;5.10;;;3.60;;
6089;SDS011;3073;42.660;23.316;2023-05-07T10:35:37;5.53;;;3.25;;
6089;SDS011;3073;42.660;23.316;2023-05-07T10:38:07;11.18;;;3.40;;
6089;SDS011;3073;42.660;23.316;2023-05-07T10:40:35;7.78;;;3.88;;
6089;SDS011;3073;42.660;23.316;2023-05-07T10:43:04;4.38;;;3.75;;
6089;SDS011;3073;42.660;23.316;2023-05-07T10:45:32;4.57;;;3.20;;
6089;SDS011;3073;42.660;23.316;2023-05-07T10:48:06;3.92;;;3.17;;
6089;SDS011;3073;42.660;23.316;2023-05-07T10:50:34;3.72;;;3.20;;
6089;SDS011;3073;42.660;23.316;2023-05-07T10:53:20;4.72;;;3.15;;
6089;SDS011;3073;42.660;23.316;2023-05-07T10:55:52;3.63;;;2.90;;
6089;SDS011;3073;42.660;23.316;2023-05-07T10:58:55;4.88;;;3.03;;
6089;SDS011;3073;42.660;23.316;2023-05-07T11:01:49;4.25;;;3.13;;
6089;SDS011;3073;42.660;23.316;2023-05-07T11:04:19;3.33;;;3.00;;
6089;SDS011;3073;42.660;23.316;2023-05-07T11:09:58;4.75;;;3.33;;
6089;SDS011;3073;42.660;23.316;2023-05-07T11:12:52;3.30;;;2.97;;
6089;SDS011;3073;42.660;23.316;2023-05-07T11:15:34;3.90;;;2.97;;
6089;SDS011;3073;42.660;23.316;2023-05-07T11:18:12;7.10;;;3.22;;
6089;SDS011;3073;42.660;23.316;2023-05-07T11:20:50;4.68;;;3.35;;
6089;SDS011;3073;42.660;23.316;2023-05-07T11:26:23;4.00;;;3.40;;
6089;SDS011;3073;42.660;23.316;2023-05-07T11:28:50;3.30;;;2.80;;
6089;SDS011;3073;42.660;23.316;2023-05-07T11:31:22;5.03;;;3.50;;
6089;SDS011;3073;42.660;23.316;2023-05-07T11:33:51;3.58;;;3.00;;
6089;SDS011;3073;42.660;23.316;2023-05-07T11:36:18;5.78;;;3.28;;
6089;SDS011;3073;42.660;23.316;2023-05-07T11:38:46;3.22;;;2.80;;
6089;SDS011;3073;42.660;23.316;2023-05-07T11:41:13;3.53;;;3.20;;
6089;SDS011;3073;42.660;23.316;2023-05-07T11:43:53;4.03;;;3.17;;
6089;SDS011;3073;42.660;23.316;2023-05-07T11:46:22;3.20;;;2.90;;
6089;SDS011;3073;42.660;23.316;2023-05-07T11:48:49;2.90;;;2.70;;
6089;SDS011;3073;42.660;23.316;2023-05-07T11:51:19;5.65;;;3.05;;
6089;SDS011;3073;42.660;23.316;2023-05-07T11:53:47;4.82;;;3.38;;
6089;SDS011;3073;42.660;23.316;2023-05-07T11:56:15;3.80;;;3.42;;
6089;SDS011;3073;42.660;23.316;2023-05-07T11:58:44;4.03;;;3.50;;
6089;SDS011;3073;42.660;23.316;2023-05-07T12:01:13;2.60;;;2.40;;
6089;SDS011;3073;42.660;23.316;2023-05-07T12:03:43;3.38;;;2.83;;
6089;SDS011;3073;42.660;23.316;2023-05-07T12:06:11;4.97;;;3.10;;
6089;SDS011;3073;42.660;23.316;2023-05-07T12:08:39;4.20;;;3.45;;
6089;SDS011;3073;42.660;23.316;2023-05-07T12:11:07;4.40;;;3.00;;
6089;SDS011;3073;42.660;23.316;2023-05-07T12:13:36;6.10;;;3.17;;
6089;SDS011;3073;42.660;23.316;2023-05-07T12:16:04;3.30;;;3.00;;
6089;SDS011;3073;42.660;23.316;2023-05-07T12:18:33;2.42;;;2.22;;
6089;SDS011;3073;42.660;23.316;2023-05-07T12:21:02;3.20;;;2.78;;
6089;SDS011;3073;42.660;23.316;2023-05-07T12:23:31;5.13;;;3.38;;
6089;SDS011;3073;42.660;23.316;2023-05-07T12:25:58;3.40;;;2.80;;
6089;SDS011;3073;42.660;23.316;2023-05-07T12:28:26;3.55;;;3.08;;
6089;SDS011;3073;42.660;23.316;2023-05-07T12:30:53;3.40;;;3.10;;
6089;SDS011;3073;42.660;23.316;2023-05-07T12:33:23;3.20;;;2.80;;
6089;SDS011;3073;42.660;23.316;2023-05-07T12:35:54;3.00;;;2.70;;
6089;SDS011;3073;42.660;23.316;2023-05-07T12:38:23;3.28;;;2.72;;
6089;SDS011;3073;42.660;23.316;2023-05-07T12:40:53;3.85;;;2.45;;
6089;SDS011;3073;42.660;23.316;2023-05-07T12:43:21;4.53;;;2.60;;
6089;SDS011;3073;42.660;23.316;2023-05-07T12:45:54;2.40;;;2.08;;
6089;SDS011;3073;42.660;23.316;2023-05-07T12:48:23;6.60;;;3.03;;
6089;SDS011;3073;42.660;23.316;2023-05-07T12:50:52;3.63;;;2.75;;
6089;SDS011;3073;42.660;23.316;2023-05-07T12:53:20;3.88;;;2.38;;
6089;SDS011;3073;42.660;23.316;2023-05-07T12:55:49;2.78;;;2.58;;
6089;SDS011;3073;42.660;23.316;2023-05-07T12:58:18;3.92;;;2.53;;
6089;SDS011;3073;42.660;23.316;2023-05-07T13:00:47;3.17;;;2.30;;
6089;SDS011;3073;42.660;23.316;2023-05-07T13:03:21;2.95;;;2.35;;
6089;SDS011;3073;42.660;23.316;2023-05-07T13:05:49;2.80;;;2.25;;
6089;SDS011;3073;42.660;23.316;2023-05-07T13:08:27;3.03;;;2.72;;
6089;SDS011;3073;42.660;23.316;2023-05-07T13:10:59;3.80;;;2.78;;
6089;SDS011;3073;42.660;23.316;2023-05-07T13:13:28;3.10;;;2.80;;
6089;SDS011;3073;42.660;23.316;2023-05-07T13:15:55;3.55;;;2.88;;
6089;SDS011;3073;42.660;23.316;2023-05-07T13:18:24;3.20;;;2.67;;
6089;SDS011;3073;42.660;23.316;2023-05-07T13:20:51;3.92;;;2.97;;
6089;SDS011;3073;42.660;23.316;2023-05-07T13:23:18;5.57;;;2.20;;
6089;SDS011;3073;42.660;23.316;2023-05-07T13:25:45;4.03;;;2.60;;
6089;SDS011;3073;42.660;23.316;2023-05-07T13:28:13;2.55;;;1.92;;
6089;SDS011;3073;42.660;23.316;2023-05-07T13:30:40;2.40;;;2.20;;
6089;SDS011;3073;42.660;23.316;2023-05-07T13:33:07;3.03;;;2.17;;
6089;SDS011;3073;42.660;23.316;2023-05-07T13:35:33;3.00;;;2.70;;
6089;SDS011;3073;42.660;23.316;2023-05-07T13:38:00;3.00;;;2.33;;
6089;SDS011;3073;42.660;23.316;2023-05-07T13:40:27;3.50;;;2.53;;
6089;SDS011;3073;42.660;23.316;2023-05-07T13:42:56;2.15;;;1.95;;
6089;SDS011;3073;42.660;23.316;2023-05-07T13:45:26;2.63;;;2.22;;
6089;SDS011;3073;42.660;23.316;2023-05-07T13:47:54;3.63;;;2.53;;
6089;SDS011;3073;42.660;23.316;2023-05-07T13:50:22;3.38;;;2.22;;
6089;SDS011;3073;42.660;23.316;2023-05-07T13:52:49;2.70;;;2.42;;
6089;SDS011;3073;42.660;23.316;2023-05-07T13:55:16;3.13;;;2.00;;
6089;SDS011;3073;42.660;23.316;2023-05-07T13:57:43;3.47;;;2.25;;
6089;SDS011;3073;42.660;23.316;2023-05-07T14:00:11;2.63;;;2.05;;
6089;SDS011;3073;42.660;23.316;2023-05-07T14:02:40;4.10;;;2.50;;
6089;SDS011;3073;42.660;23.316;2023-05-07T14:05:07;3.38;;;2.50;;
6089;SDS011;3073;42.660;23.316;2023-05-07T14:07:35;2.80;;;2.33;;
6089;SDS011;3073;42.660;23.316;2023-05-07T14:10:02;4.78;;;2.65;;
6089;SDS011;3073;42.660;23.316;2023-05-07T14:12:31;2.45;;;2.05;;
6089;SDS011;3073;42.660;23.316;2023-05-07T14:14:58;2.80;;;2.50;;
6089;SDS011;3073;42.660;23.316;2023-05-07T14:17:25;4.05;;;2.08;;
6089;SDS011;3073;42.660;23.316;2023-05-07T14:19:54;3.47;;;2.30;;
6089;SDS011;3073;42.660;23.316;2023-05-07T14:22:21;3.13;;;2.50;;
6089;SDS011;3073;42.660;23.316;2023-05-07T14:24:49;5.78;;;2.40;;
6089;SDS011;3073;42.660;23.316;2023-05-07T14:27:16;4.63;;;2.20;;
6089;SDS011;3073;42.660;23.316;2023-05-07T14:29:43;2.50;;;2.22;;
6089;SDS011;3073;42.660;23.316;2023-05-07T14:32:10;2.55;;;2.35;;
6089;SDS011;3073;42.660;23.316;2023-05-07T14:34:37;4.45;;;2.22;;
6089;SDS011;3073;42.660;23.316;2023-05-07T14:37:05;5.32;;;2.67;;
6089;SDS011;3073;42.660;23.316;2023-05-07T14:39:32;3.00;;;2.65;;
6089;SDS011;3073;42.660;23.316;2023-05-07T14:41:59;3.72;;;2.53;;
6089;SDS011;3073;42.660;23.316;2023-05-07T14:44:26;3.55;;;3.03;;
6089;SDS011;3073;42.660;23.316;2023-05-07T14:46:52;3.53;;;2.65;;
6089;SDS011;3073;42.660;23.316;2023-05-07T14:49:19;5.80;;;2.90;;
6089;SDS011;3073;42.660;23.316;2023-05-07T14:51:46;3.75;;;2.75;;
6089;SDS011;3073;42.660;23.316;2023-05-07T14:54:15;2.45;;;2.10;;
6089;SDS011;3073;42.660;23.316;2023-05-07T14:56:42;4.90;;;2.70;;
6089;SDS011;3073;42.660;23.316;2023-05-07T14:59:09;3.75;;;2.83;;
6089;SDS011;3073;42.660;23.316;2023-05-07T15:01:40;3.55;;;2.40;;
6089;SDS011;3073;42.660;23.316;2023-05-07T15:04:10;3.00;;;2.13;;
6089;SDS011;3073;42.660;23.316;2023-05-07T15:06:37;4.72;;;2.35;;
6089;SDS011;3073;42.660;23.316;2023-05-07T15:09:05;5.30;;;2.80;;
6089;SDS011;3073;42.660;23.316;2023-05-07T15:11:36;4.55;;;2.63;;